Time;durP1;ratioP1;P1;durP2;ratioP2;P2;SDS_P1;SDS_P2;PMS_P1;PMS_P2;Temp;Humidity;BMP_temperature;BMP_pressure;BME280_temperature;BME280_humidity;BME280_pressure;Samples;Min_cycle;Max_cycle;Signal;HPM_P1;HPM_P2
2023/04/06 00:02:17;;;;;;;30.00;17.90;;;;;;;;;;5077197;28;20364;-79
2023/04/06 00:04:45;;;;;;;32.67;16.20;;;;;;;;;;5059531;28;20279;-78
2023/04/06 00:07:11;;;;;;;32.77;16.43;;;;;;;;;;5081537;28;20271;-77
2023/04/06 00:09:39;;;;;;;29.27;15.50;;;;;;;;;;5064938;28;20324;-79
2023/04/06 00:12:05;;;;;;;28.70;15.43;;;;;;;;;;5078575;28;20308;-78
2023/04/06 00:14:31;;;;;;;31.37;16.23;;;;;;;;;;5061669;28;20356;-79
2023/04/06 00:16:57;;;;;;;28.93;16.47;;;;;;;;;;5063565;28;20354;-78
2023/04/06 00:19:23;;;;;;;24.60;15.20;;;;;;;;;;5081398;28;20040;-78
2023/04/06 00:21:49;;;;;;;29.60;16.00;;;;;;;;;;5065665;28;20428;-78
2023/04/06 00:24:15;;;;;;;27.27;15.47;;;;;;;;;;5081910;28;20793;-78
2023/04/06 00:26:41;;;;;;;26.30;15.33;;;;;;;;;;5082243;28;20287;-77
2023/04/06 00:29:27;;;;;;;31.20;15.13;;;;;;;;;;5062478;28;20316;-78
2023/04/06 00:31:53;;;;;;;28.20;16.13;;;;;;;;;;5079152;28;20361;-78
2023/04/06 00:34:19;;;;;;;30.67;15.23;;;;;;;;;;5064738;28;20393;-78
2023/04/06 00:36:45;;;;;;;26.50;15.47;;;;;;;;;;5060860;28;20098;-78
2023/04/06 00:39:11;;;;;;;25.63;15.93;;;;;;;;;;5081378;28;20270;-78
2023/04/06 00:41:37;;;;;;;25.30;14.47;;;;;;;;;;5063917;28;20877;-78
2023/04/06 00:44:03;;;;;;;28.50;15.77;;;;;;;;;;5079355;28;20267;-78
2023/04/06 00:46:29;;;;;;;34.90;15.83;;;;;;;;;;5066574;28;20404;-79
2023/04/06 00:48:55;;;;;;;24.77;14.30;;;;;;;;;;5062881;28;20650;-78
2023/04/06 00:51:21;;;;;;;28.13;14.87;;;;;;;;;;5060961;28;20286;-78
2023/04/06 00:53:47;;;;;;;30.30;15.57;;;;;;;;;;5062493;28;20301;-78
2023/04/06 00:56:13;;;;;;;25.43;14.67;;;;;;;;;;5059836;28;20374;-78
2023/04/06 00:58:40;;;;;;;27.77;14.20;;;;;;;;;;5080108;28;20275;-78
2023/04/06 01:01:06;;;;;;;25.13;15.13;;;;;;;;;;5077647;28;20283;-78
2023/04/06 01:03:32;;;;;;;33.30;16.07;;;;;;;;;;5063676;28;20275;-78
2023/04/06 01:05:58;;;;;;;29.60;15.50;;;;;;;;;;5061609;28;20354;-79
2023/04/06 01:08:25;;;;;;;25.27;14.87;;;;;;;;;;5062781;28;20326;-78
2023/04/06 01:10:51;;;;;;;30.13;16.10;;;;;;;;;;5078764;28;20259;-78
2023/04/06 01:13:17;;;;;;;27.90;15.50;;;;;;;;;;5072613;28;20268;-77
2023/04/06 01:15:43;;;;;;;28.93;16.17;;;;;;;;;;5059210;28;20281;-79
2023/04/06 01:18:12;;;;;;;29.20;16.33;;;;;;;;;;5064814;28;20341;-78
2023/04/06 01:20:38;;;;;;;26.80;15.57;;;;;;;;;;5061401;28;20259;-78
2023/04/06 01:23:04;;;;;;;24.50;14.60;;;;;;;;;;5062166;28;21055;-79
2023/04/06 01:25:30;;;;;;;30.93;15.67;;;;;;;;;;5060676;28;20313;-78
2023/04/06 01:27:56;;;;;;;29.50;15.27;;;;;;;;;;5077203;28;20272;-78
2023/04/06 01:30:22;;;;;;;29.23;15.40;;;;;;;;;;5062921;28;20263;-78
2023/04/06 01:32:48;;;;;;;27.87;16.07;;;;;;;;;;5078232;28;20317;-78
2023/04/06 01:35:15;;;;;;;27.13;16.10;;;;;;;;;;5077407;28;20623;-78
2023/04/06 01:37:41;;;;;;;30.60;16.30;;;;;;;;;;5065452;28;20311;-78
2023/04/06 01:40:07;;;;;;;27.83;15.63;;;;;;;;;;5078823;28;20279;-79
2023/04/06 01:42:33;;;;;;;31.20;16.00;;;;;;;;;;5078888;28;20291;-78
2023/04/06 01:44:59;;;;;;;28.10;15.17;;;;;;;;;;5076756;28;20748;-78
2023/04/06 01:47:25;;;;;;;29.03;15.87;;;;;;;;;;5075324;28;20679;-79
2023/04/06 01:49:51;;;;;;;29.30;16.03;;;;;;;;;;5058453;28;20280;-78
2023/04/06 01:52:17;;;;;;;31.50;16.90;;;;;;;;;;5071016;28;20047;-79
2023/04/06 01:54:45;;;;;;;30.03;16.50;;;;;;;;;;5060439;28;20283;-79
2023/04/06 01:57:14;;;;;;;28.03;16.37;;;;;;;;;;5079860;28;20769;-78
2023/04/06 01:59:40;;;;;;;27.03;15.37;;;;;;;;;;5075620;28;20278;-78
2023/04/06 02:02:06;;;;;;;29.17;15.70;;;;;;;;;;5065540;28;20297;-77
2023/04/06 02:04:32;;;;;;;29.13;17.07;;;;;;;;;;5067681;28;20033;-78
2023/04/06 02:06:58;;;;;;;25.33;15.23;;;;;;;;;;5084508;28;20353;-79
2023/04/06 02:09:24;;;;;;;28.80;16.27;;;;;;;;;;5084839;28;21120;-78
2023/04/06 02:11:52;;;;;;;27.50;15.63;;;;;;;;;;5085213;28;20491;-78
2023/04/06 02:14:18;;;;;;;25.33;14.73;;;;;;;;;;5066841;28;20290;-78
2023/04/06 02:16:45;;;;;;;29.27;15.10;;;;;;;;;;5077094;28;20276;-78
2023/04/06 02:19:11;;;;;;;27.73;15.10;;;;;;;;;;5084771;28;20040;-77
2023/04/06 02:21:37;;;;;;;25.63;14.87;;;;;;;;;;5060435;28;20287;-78
2023/04/06 02:24:03;;;;;;;27.97;15.93;;;;;;;;;;5079932;28;20267;-78
2023/04/06 02:26:29;;;;;;;28.00;16.13;;;;;;;;;;5063316;28;20757;-78
2023/04/06 02:28:55;;;;;;;33.27;15.40;;;;;;;;;;5084695;28;20281;-78
2023/04/06 02:31:23;;;;;;;32.37;17.13;;;;;;;;;;5084887;28;20286;-77
2023/04/06 02:33:52;;;;;;;27.80;16.23;;;;;;;;;;5083570;28;20276;-79
2023/04/06 02:36:18;;;;;;;29.20;16.30;;;;;;;;;;5073051;28;20706;-78
2023/04/06 02:38:44;;;;;;;25.53;15.00;;;;;;;;;;5072182;28;20743;-78
2023/04/06 02:41:10;;;;;;;28.40;15.87;;;;;;;;;;5067229;28;21693;-79
2023/04/06 02:43:36;;;;;;;34.77;16.23;;;;;;;;;;5065746;28;20735;-78
2023/04/06 02:46:02;;;;;;;32.07;16.83;;;;;;;;;;5080995;28;20608;-79
2023/04/06 02:48:28;;;;;;;28.87;16.27;;;;;;;;;;5082364;28;20651;-77
2023/04/06 02:50:54;;;;;;;25.73;15.60;;;;;;;;;;5083850;28;20275;-78
2023/04/06 02:53:20;;;;;;;28.53;15.50;;;;;;;;;;5064306;28;20808;-79
2023/04/06 02:55:46;;;;;;;30.87;15.37;;;;;;;;;;5067862;28;20342;-79
2023/04/06 02:58:12;;;;;;;29.27;15.60;;;;;;;;;;5066864;28;20271;-78
2023/04/06 03:00:38;;;;;;;27.23;15.87;;;;;;;;;;5080259;28;20547;-78
2023/04/06 03:03:04;;;;;;;27.90;16.17;;;;;;;;;;5082476;28;20792;-78
2023/04/06 03:05:30;;;;;;;26.70;15.27;;;;;;;;;;5066155;28;20283;-78
2023/04/06 03:07:56;;;;;;;27.27;15.67;;;;;;;;;;5068430;28;20287;-79
2023/04/06 03:10:22;;;;;;;27.17;15.37;;;;;;;;;;5069947;28;20282;-78
2023/04/06 03:12:48;;;;;;;25.87;14.67;;;;;;;;;;5066025;28;20353;-79
2023/04/06 03:15:14;;;;;;;31.67;15.43;;;;;;;;;;5066617;28;20032;-76
2023/04/06 03:17:40;;;;;;;29.93;16.43;;;;;;;;;;5080331;28;20693;-78
2023/04/06 03:20:06;;;;;;;28.60;16.73;;;;;;;;;;5078829;28;20267;-78
2023/04/06 03:22:32;;;;;;;25.80;14.87;;;;;;;;;;5066709;28;20279;-78
2023/04/06 03:24:58;;;;;;;27.83;15.43;;;;;;;;;;5068856;28;20441;-78
2023/04/06 03:27:24;;;;;;;33.90;16.47;;;;;;;;;;5081470;28;20024;-78
2023/04/06 03:29:50;;;;;;;24.43;15.17;;;;;;;;;;5084885;28;20266;-78
2023/04/06 03:32:16;;;;;;;27.77;14.87;;;;;;;;;;5067932;28;20375;-78
2023/04/06 03:34:42;;;;;;;25.33;15.30;;;;;;;;;;5064234;28;20283;-78
2023/04/06 03:37:09;;;;;;;28.43;14.80;;;;;;;;;;5064117;28;20280;-78
2023/04/06 03:39:35;;;;;;;27.77;16.20;;;;;;;;;;5065970;28;20747;-78
2023/04/06 03:42:01;;;;;;;25.17;14.77;;;;;;;;;;5063286;28;20287;-78
2023/04/06 03:44:27;;;;;;;25.40;14.93;;;;;;;;;;5087364;28;20332;-79
2023/04/06 03:46:55;;;;;;;25.60;15.00;;;;;;;;;;5079524;28;20272;-78
2023/04/06 03:49:21;;;;;;;25.03;15.50;;;;;;;;;;5063076;28;20465;-78
2023/04/06 03:51:47;;;;;;;26.17;14.80;;;;;;;;;;5066468;28;21087;-78
2023/04/06 03:54:13;;;;;;;25.73;14.50;;;;;;;;;;5067815;28;20727;-78
2023/04/06 03:56:39;;;;;;;27.73;15.83;;;;;;;;;;5063692;28;20151;-78
2023/04/06 03:59:05;;;;;;;25.47;13.90;;;;;;;;;;5079779;28;20344;-78
2023/04/06 04:01:31;;;;;;;27.20;15.27;;;;;;;;;;5085073;28;21962;-78
2023/04/06 04:03:57;;;;;;;26.07;15.57;;;;;;;;;;5085089;28;20275;-78
2023/04/06 04:06:23;;;;;;;30.17;15.87;;;;;;;;;;5063204;28;20270;-78
2023/04/06 04:08:49;;;;;;;25.20;14.87;;;;;;;;;;5064244;28;20716;-78
2023/04/06 04:11:18;;;;;;;27.07;15.47;;;;;;;;;;5077882;28;20422;-78
2023/04/06 04:13:44;;;;;;;26.70;15.43;;;;;;;;;;5078436;28;20311;-77
2023/04/06 04:16:10;;;;;;;25.53;15.07;;;;;;;;;;5062427;28;20391;-78
2023/04/06 04:18:36;;;;;;;23.70;15.17;;;;;;;;;;5062072;28;20305;-78
2023/04/06 04:21:02;;;;;;;29.70;14.93;;;;;;;;;;5077869;28;20287;-78
2023/04/06 04:23:28;;;;;;;27.07;14.33;;;;;;;;;;5064145;28;20608;-78
2023/04/06 04:25:54;;;;;;;24.63;14.33;;;;;;;;;;5063642;28;20257;-78
2023/04/06 04:28:20;;;;;;;25.83;14.33;;;;;;;;;;5082475;28;20107;-78
2023/04/06 04:30:46;;;;;;;27.70;14.93;;;;;;;;;;5062654;28;20381;-78
2023/04/06 04:33:13;;;;;;;26.37;14.37;;;;;;;;;;5063242;28;20283;-77
2023/04/06 04:35:39;;;;;;;22.27;13.83;;;;;;;;;;5059717;28;20315;-77
2023/04/06 04:38:05;;;;;;;23.23;13.73;;;;;;;;;;5061545;28;20267;-77
2023/04/06 04:40:31;;;;;;;24.27;14.20;;;;;;;;;;5077103;28;20338;-78
2023/04/06 04:42:57;;;;;;;23.90;13.90;;;;;;;;;;5076853;28;20303;-79
2023/04/06 04:45:23;;;;;;;25.83;14.53;;;;;;;;;;5062666;28;20275;-77
2023/04/06 04:47:49;;;;;;;23.53;14.33;;;;;;;;;;5079622;28;21202;-77
2023/04/06 04:50:15;;;;;;;22.27;13.37;;;;;;;;;;5062869;28;20267;-78
2023/04/06 04:52:41;;;;;;;23.63;14.40;;;;;;;;;;5080929;28;20286;-78
2023/04/06 04:55:07;;;;;;;21.33;13.13;;;;;;;;;;5066361;28;20332;-78
2023/04/06 04:57:33;;;;;;;27.43;14.20;;;;;;;;;;5070156;28;20287;-78
2023/04/06 04:59:59;;;;;;;19.97;12.93;;;;;;;;;;5058528;28;20770;-78
2023/04/06 05:02:25;;;;;;;21.60;12.40;;;;;;;;;;5061910;28;20279;-79
2023/04/06 05:04:51;;;;;;;30.07;14.47;;;;;;;;;;5074859;28;20055;-78
2023/04/06 05:07:18;;;;;;;21.87;13.77;;;;;;;;;;5062055;28;20333;-77
2023/04/06 05:09:44;;;;;;;24.50;14.07;;;;;;;;;;5071670;28;20270;-78
2023/04/06 05:12:10;;;;;;;22.30;13.77;;;;;;;;;;5080248;28;20312;-77
2023/04/06 05:14:37;;;;;;;23.53;14.13;;;;;;;;;;5060321;28;20271;-79
2023/04/06 05:17:05;;;;;;;24.33;13.77;;;;;;;;;;5077559;28;20271;-77
2023/04/06 05:19:31;;;;;;;20.37;13.87;;;;;;;;;;5076236;28;20275;-78
2023/04/06 05:21:57;;;;;;;27.27;14.23;;;;;;;;;;5077794;28;20279;-78
2023/04/06 05:24:23;;;;;;;25.13;14.17;;;;;;;;;;5061684;28;20286;-78
2023/04/06 05:26:49;;;;;;;23.80;14.10;;;;;;;;;;5078579;28;20607;-78
2023/04/06 05:29:16;;;;;;;22.20;12.03;;;;;;;;;;5079529;28;20282;-79
2023/04/06 05:31:42;;;;;;;26.17;12.90;;;;;;;;;;5062905;28;20271;-78
2023/04/06 05:34:09;;;;;;;21.33;13.23;;;;;;;;;;5063069;28;20310;-79
2023/04/06 05:36:37;;;;;;;18.87;12.13;;;;;;;;;;5074460;28;20287;-77
2023/04/06 05:39:03;;;;;;;22.30;13.53;;;;;;;;;;5065661;28;20274;-78
2023/04/06 05:41:30;;;;;;;19.87;12.87;;;;;;;;;;5078564;28;20325;-78
2023/04/06 05:43:56;;;;;;;20.87;11.93;;;;;;;;;;5077625;28;20283;-78
2023/04/06 05:46:22;;;;;;;22.37;13.37;;;;;;;;;;5077462;28;20758;-78
2023/04/06 05:48:48;;;;;;;20.47;12.10;;;;;;;;;;5060131;28;20275;-78
2023/04/06 05:51:14;;;;;;;23.43;13.90;;;;;;;;;;5076872;28;20860;-79
2023/04/06 05:53:42;;;;;;;26.20;13.67;;;;;;;;;;5076468;28;20299;-78
2023/04/06 05:56:08;;;;;;;27.93;13.13;;;;;;;;;;5063039;28;20267;-76
2023/04/06 05:58:35;;;;;;;20.67;11.97;;;;;;;;;;5076178;28;20286;-77
2023/04/06 06:01:04;;;;;;;21.50;11.97;;;;;;;;;;5080670;28;20275;-79
2023/04/06 06:03:31;;;;;;;22.27;11.87;;;;;;;;;;5076349;28;20275;-78
2023/04/06 06:06:03;;;;;;;25.37;13.03;;;;;;;;;;5060701;28;21931;-79
2023/04/06 06:08:30;;;;;;;22.75;13.32;;;;;;;;;;5078297;28;20280;-78
2023/04/06 06:10:58;;;;;;;19.10;12.80;;;;;;;;;;5075138;28;20124;-78
2023/04/06 06:13:24;;;;;;;17.87;11.00;;;;;;;;;;5060844;28;20331;-77
2023/04/06 06:15:50;;;;;;;19.27;10.53;;;;;;;;;;5059999;28;20723;-78
2023/04/06 06:18:16;;;;;;;16.83;11.00;;;;;;;;;;5059974;28;20360;-79
2023/04/06 06:20:42;;;;;;;18.40;10.83;;;;;;;;;;5058750;28;20278;-78
2023/04/06 06:23:11;;;;;;;19.80;11.00;;;;;;;;;;5064331;28;20382;-78
2023/04/06 06:25:37;;;;;;;24.73;12.43;;;;;;;;;;5059055;28;20274;-79
2023/04/06 06:28:05;;;;;;;18.67;11.30;;;;;;;;;;5078289;28;20366;-79
2023/04/06 06:30:31;;;;;;;22.53;12.17;;;;;;;;;;5078462;28;20275;-77
2023/04/06 06:33:17;;;;;;;18.00;10.67;;;;;;;;;;5078764;28;20278;-78
2023/04/06 06:35:43;;;;;;;19.77;10.90;;;;;;;;;;5076596;28;21980;-77
2023/04/06 06:38:09;;;;;;;20.47;12.10;;;;;;;;;;5062051;28;20279;-76
2023/04/06 06:40:35;;;;;;;16.50;10.07;;;;;;;;;;5074969;28;20047;-78
2023/04/06 06:43:01;;;;;;;19.43;11.53;;;;;;;;;;5075705;28;20292;-77
2023/04/06 06:45:29;;;;;;;17.13;10.17;;;;;;;;;;5064814;28;20792;-77
2023/04/06 06:47:55;;;;;;;17.27;11.23;;;;;;;;;;5061430;28;20340;-77
2023/04/06 06:50:21;;;;;;;19.77;10.47;;;;;;;;;;5065333;28;20364;-78
2023/04/06 06:52:47;;;;;;;18.13;10.20;;;;;;;;;;5082051;28;20025;-77
2023/04/06 06:55:13;;;;;;;14.50;9.87;;;;;;;;;;5064721;28;20302;-77
2023/04/06 06:57:42;;;;;;;18.60;9.70;;;;;;;;;;5081243;28;20305;-78
2023/04/06 07:00:08;;;;;;;16.40;9.90;;;;;;;;;;5066755;28;21823;-78
2023/04/06 07:02:38;;;;;;;17.07;10.20;;;;;;;;;;5066556;28;20297;-78
2023/04/06 07:05:04;;;;;;;17.80;9.60;;;;;;;;;;5067274;28;20271;-77
2023/04/06 07:07:30;;;;;;;14.73;9.73;;;;;;;;;;5062120;28;20060;-78
2023/04/06 07:09:56;;;;;;;17.37;10.40;;;;;;;;;;5080528;28;20025;-78
2023/04/06 07:12:22;;;;;;;16.70;10.17;;;;;;;;;;5061717;28;20357;-78
2023/04/06 07:14:48;;;;;;;18.17;9.47;;;;;;;;;;5060982;28;20033;-77
2023/04/06 07:17:14;;;;;;;18.73;9.63;;;;;;;;;;5061517;28;20036;-78
2023/04/06 07:19:40;;;;;;;15.07;9.10;;;;;;;;;;5062901;28;20020;-77
2023/04/06 07:22:06;;;;;;;14.47;9.40;;;;;;;;;;5077565;28;20401;-77
2023/04/06 07:24:32;;;;;;;15.00;8.97;;;;;;;;;;5061327;28;20021;-79
2023/04/06 07:27:00;;;;;;;16.73;9.40;;;;;;;;;;5077952;28;20040;-78
2023/04/06 07:29:27;;;;;;;18.30;10.07;;;;;;;;;;5080319;28;20048;-78
2023/04/06 07:31:53;;;;;;;16.80;10.10;;;;;;;;;;5064880;28;20032;-77
2023/04/06 07:34:19;;;;;;;18.73;9.50;;;;;;;;;;5062140;28;20094;-78
2023/04/06 07:36:45;;;;;;;16.57;10.13;;;;;;;;;;5064863;28;20029;-78
2023/04/06 07:39:11;;;;;;;19.17;9.23;;;;;;;;;;5079885;28;20116;-78
2023/04/06 07:41:37;;;;;;;21.87;9.70;;;;;;;;;;5062335;28;20047;-78
2023/04/06 07:44:04;;;;;;;16.60;9.53;;;;;;;;;;5078221;28;20087;-78
2023/04/06 07:46:30;;;;;;;15.73;9.60;;;;;;;;;;5079849;28;20437;-79
2023/04/06 07:49:01;;;;;;;14.43;10.10;;;;;;;;;;5080045;28;20025;-78
2023/04/06 07:51:27;;;;;;;15.30;10.37;;;;;;;;;;5077065;28;20029;-78
2023/04/06 07:53:53;;;;;;;16.93;9.57;;;;;;;;;;5080683;28;20947;-79
2023/04/06 07:56:20;;;;;;;17.17;10.47;;;;;;;;;;5064749;28;20060;-78
2023/04/06 07:58:49;;;;;;;15.47;10.63;;;;;;;;;;5080535;28;20067;-79
2023/04/06 08:01:15;;;;;;;16.27;9.93;;;;;;;;;;5064880;28;20414;-79
2023/04/06 08:03:41;;;;;;;16.73;9.90;;;;;;;;;;5079038;28;20038;-79
2023/04/06 08:06:07;;;;;;;21.43;10.50;;;;;;;;;;5064896;28;20033;-79
2023/04/06 08:08:33;;;;;;;17.03;9.30;;;;;;;;;;5060836;28;20368;-79
2023/04/06 08:10:59;;;;;;;15.07;9.93;;;;;;;;;;5060146;28;20043;-79
2023/04/06 08:13:25;;;;;;;17.10;10.43;;;;;;;;;;5079908;28;20132;-78
2023/04/06 08:15:51;;;;;;;15.43;10.37;;;;;;;;;;5079660;28;20035;-79
2023/04/06 08:18:17;;;;;;;19.83;10.47;;;;;;;;;;5076627;28;20075;-78
2023/04/06 08:20:43;;;;;;;17.73;10.07;;;;;;;;;;5061874;28;20037;-79
2023/04/06 08:23:10;;;;;;;18.07;9.23;;;;;;;;;;5062112;28;20369;-79
2023/04/06 08:25:37;;;;;;;16.23;9.87;;;;;;;;;;5077472;28;20401;-79
2023/04/06 08:28:06;;;;;;;20.73;11.00;;;;;;;;;;5061079;28;20035;-79
2023/04/06 08:30:32;;;;;;;15.70;9.80;;;;;;;;;;5075712;28;20029;-78
2023/04/06 08:32:58;;;;;;;15.93;10.17;;;;;;;;;;5076816;28;20330;-78
2023/04/06 08:35:26;;;;;;;20.33;10.47;;;;;;;;;;5078679;28;20033;-79
2023/04/06 08:37:52;;;;;;;15.00;8.93;;;;;;;;;;5079230;28;20025;-78
2023/04/06 08:40:19;;;;;;;19.27;10.23;;;;;;;;;;5063863;28;20047;-78
2023/04/06 08:42:48;;;;;;;19.87;10.47;;;;;;;;;;5062392;28;20043;-79
2023/04/06 08:45:15;;;;;;;19.33;10.33;;;;;;;;;;5065052;28;20021;-79
2023/04/06 08:47:41;;;;;;;18.97;9.73;;;;;;;;;;5064711;28;20028;-79
2023/04/06 08:50:11;;;;;;;17.30;9.80;;;;;;;;;;5075377;28;20107;-79
2023/04/06 08:52:37;;;;;;;14.97;10.23;;;;;;;;;;5059166;28;20183;-79
2023/04/06 08:55:03;;;;;;;17.67;10.17;;;;;;;;;;5076698;28;20074;-78
2023/04/06 08:57:29;;;;;;;17.90;10.57;;;;;;;;;;5060746;28;20115;-79
2023/04/06 08:59:56;;;;;;;16.00;9.57;;;;;;;;;;5060299;28;20036;-78
2023/04/06 09:02:22;;;;;;;18.10;10.63;;;;;;;;;;5061880;28;20048;-79
2023/04/06 09:04:50;;;;;;;16.57;11.10;;;;;;;;;;5057943;28;20039;-79
2023/04/06 09:07:16;;;;;;;16.70;9.80;;;;;;;;;;5063210;28;20115;-79
2023/04/06 09:09:47;;;;;;;19.73;10.23;;;;;;;;;;5064400;28;20024;-79
2023/04/06 09:12:33;;;;;;;20.63;10.17;;;;;;;;;;5078157;28;20029;-79
2023/04/06 09:15:00;;;;;;;17.43;10.00;;;;;;;;;;5060629;28;20074;-79
2023/04/06 09:17:36;;;;;;;14.23;9.53;;;;;;;;;;5077603;28;20035;-78
2023/04/06 09:20:03;;;;;;;17.33;10.87;;;;;;;;;;5076056;28;20025;-79
2023/04/06 09:22:42;;;;;;;18.47;10.90;;;;;;;;;;5076632;28;20075;-78
2023/04/06 09:25:09;;;;;;;17.37;10.17;;;;;;;;;;5064601;28;20043;-80
2023/04/06 09:27:36;;;;;;;21.67;10.20;;;;;;;;;;5059999;28;20055;-78
2023/04/06 09:30:06;;;;;;;18.70;10.60;;;;;;;;;;5077136;28;20055;-79
2023/04/06 09:32:32;;;;;;;21.47;10.90;;;;;;;;;;5063089;28;20082;-80
2023/04/06 09:35:08;;;;;;;18.43;11.07;;;;;;;;;;5076769;28;20025;-78
2023/04/06 09:37:35;;;;;;;19.57;10.77;;;;;;;;;;5074669;28;20108;-79
2023/04/06 09:40:07;;;;;;;20.40;10.40;;;;;;;;;;5060885;28;20037;-79
2023/04/06 09:42:34;;;;;;;15.07;9.80;;;;;;;;;;5076859;28;20124;-80
2023/04/06 09:45:00;;;;;;;16.57;10.13;;;;;;;;;;5078097;28;20028;-79
2023/04/06 09:47:29;;;;;;;17.57;10.30;;;;;;;;;;5060317;28;20025;-80
2023/04/06 09:49:57;;;;;;;19.33;11.53;;;;;;;;;;5077184;28;20021;-79
2023/04/06 09:52:26;;;;;;;17.20;10.53;;;;;;;;;;5058734;28;20033;-79
2023/04/06 09:54:53;;;;;;;16.27;10.20;;;;;;;;;;5059174;28;20067;-79
2023/04/06 09:57:22;;;;;;;23.43;11.20;;;;;;;;;;5060874;28;20108;-79
2023/04/06 10:00:14;;;;;;;17.60;10.53;;;;;;;;;;5061859;28;20036;-79
2023/04/06 10:02:55;;;;;;;21.33;11.83;;;;;;;;;;5078933;28;20028;-79
2023/04/06 10:05:33;;;;;;;20.13;11.50;;;;;;;;;;5077036;28;20135;-79
2023/04/06 10:08:01;;;;;;;19.73;10.90;;;;;;;;;;5062536;28;20021;-78
2023/04/06 10:10:30;;;;;;;19.63;11.00;;;;;;;;;;5076204;28;20117;-78
2023/04/06 10:12:57;;;;;;;18.97;11.67;;;;;;;;;;5062688;28;20181;-79
2023/04/06 10:15:24;;;;;;;20.47;11.87;;;;;;;;;;5060187;28;20036;-79
2023/04/06 10:17:50;;;;;;;23.27;12.00;;;;;;;;;;5062287;28;20040;-79
2023/04/06 10:20:29;;;;;;;23.37;11.53;;;;;;;;;;5063180;28;20039;-79
2023/04/06 10:22:58;;;;;;;23.57;12.00;;;;;;;;;;5059515;28;20116;-78
2023/04/06 10:25:32;;;;;;;25.50;11.97;;;;;;;;;;5070446;28;20041;-79
2023/04/06 10:28:19;;;;;;;19.17;11.23;;;;;;;;;;5079257;28;20040;-79
2023/04/06 10:30:46;;;;;;;17.97;11.20;;;;;;;;;;5081567;28;20357;-78
2023/04/06 10:33:20;;;;;;;23.17;11.97;;;;;;;;;;5079212;28;20040;-79
2023/04/06 10:35:46;;;;;;;21.90;11.93;;;;;;;;;;5082191;28;20024;-79
2023/04/06 10:38:14;;;;;;;23.00;12.30;;;;;;;;;;5083636;28;20383;-79
2023/04/06 10:40:40;;;;;;;20.23;11.73;;;;;;;;;;5081320;28;20040;-79
2023/04/06 10:43:20;;;;;;;22.23;12.33;;;;;;;;;;5064844;28;20388;-79
2023/04/06 10:45:55;;;;;;;23.80;13.33;;;;;;;;;;5083066;28;20108;-78
2023/04/06 10:48:21;;;;;;;19.87;11.70;;;;;;;;;;5071400;28;20037;-79
2023/04/06 10:50:51;;;;;;;20.80;11.77;;;;;;;;;;5081911;28;20032;-79
2023/04/06 10:53:24;;;;;;;23.47;11.77;;;;;;;;;;5083132;28;20043;-78
2023/04/06 10:55:51;;;;;;;20.90;12.38;;;;;;;;;;5069301;28;20068;-79
2023/04/06 10:58:17;;;;;;;24.80;11.90;;;;;;;;;;5082172;28;20032;-79
2023/04/06 11:00:47;;;;;;;18.80;12.55;;;;;;;;;;5065684;28;20045;-79
2023/04/06 11:03:13;;;;;;;23.17;12.70;;;;;;;;;;5081542;28;20120;-79
2023/04/06 11:05:43;;;;;;;20.88;12.52;;;;;;;;;;5072923;28;20119;-79
2023/04/06 11:08:09;;;;;;;21.27;11.80;;;;;;;;;;5083019;28;20040;-78
2023/04/06 11:10:35;;;;;;;20.33;11.88;;;;;;;;;;5086478;28;20039;-79
2023/04/06 11:13:02;;;;;;;20.10;12.55;;;;;;;;;;5071146;28;20028;-79
2023/04/06 11:15:34;;;;;;;21.83;12.82;;;;;;;;;;5065343;28;20036;-79
2023/04/06 11:18:03;;;;;;;22.42;12.35;;;;;;;;;;5078405;28;20033;-78
2023/04/06 11:20:32;;;;;;;19.73;12.68;;;;;;;;;;5066753;28;20376;-79
2023/04/06 11:22:59;;;;;;;20.45;11.82;;;;;;;;;;5077233;28;20036;-79
2023/04/06 11:25:27;;;;;;;18.73;12.02;;;;;;;;;;5062641;28;20040;-79
2023/04/06 11:27:56;;;;;;;20.60;12.95;;;;;;;;;;5063464;28;20028;-79
2023/04/06 11:30:22;;;;;;;20.23;12.02;;;;;;;;;;5063889;28;20032;-79
2023/04/06 11:32:48;;;;;;;23.08;12.27;;;;;;;;;;5062673;28;20030;-79
2023/04/06 11:35:21;;;;;;;19.95;11.82;;;;;;;;;;5076645;28;20033;-79
2023/04/06 11:37:47;;;;;;;20.23;12.55;;;;;;;;;;5063156;28;20029;-79
2023/04/06 11:40:13;;;;;;;21.67;12.33;;;;;;;;;;5060568;28;20104;-79
2023/04/06 11:42:39;;;;;;;19.43;12.23;;;;;;;;;;5079490;28;20056;-79
2023/04/06 11:45:08;;;;;;;21.00;11.60;;;;;;;;;;5080166;28;20024;-78
2023/04/06 11:47:35;;;;;;;20.63;12.40;;;;;;;;;;5076696;28;20017;-78
2023/04/06 11:50:08;;;;;;;20.85;12.15;;;;;;;;;;5066760;28;20021;-79
2023/04/06 11:52:36;;;;;;;16.63;10.90;;;;;;;;;;5060910;28;20021;-79
2023/04/06 11:55:19;;;;;;;17.27;11.45;;;;;;;;;;5080664;28;20028;-79
2023/04/06 11:57:47;;;;;;;16.15;11.38;;;;;;;;;;5076006;28;20025;-78
2023/04/06 12:00:13;;;;;;;19.02;11.55;;;;;;;;;;5064500;28;20032;-78
2023/04/06 12:02:40;;;;;;;17.95;11.93;;;;;;;;;;5084120;28;20029;-78
2023/04/06 12:05:08;;;;;;;16.58;10.95;;;;;;;;;;5066036;28;20032;-79
2023/04/06 12:07:34;;;;;;;14.63;10.85;;;;;;;;;;5081577;28;20025;-79
2023/04/06 12:10:02;;;;;;;18.65;12.63;;;;;;;;;;5069282;28;20436;-79
2023/04/06 12:12:28;;;;;;;21.65;13.10;;;;;;;;;;5064209;28;20112;-79
2023/04/06 12:14:54;;;;;;;20.02;13.07;;;;;;;;;;5061337;28;20031;-79
2023/04/06 12:17:20;;;;;;;23.15;12.32;;;;;;;;;;5085390;28;20021;-78
2023/04/06 12:19:49;;;;;;;18.48;11.98;;;;;;;;;;5077859;28;20128;-77
2023/04/06 12:22:18;;;;;;;22.52;12.77;;;;;;;;;;5062285;28;20473;-78
2023/04/06 12:24:46;;;;;;;22.83;13.02;;;;;;;;;;5059106;28;20024;-78
2023/04/06 12:27:12;;;;;;;22.03;12.13;;;;;;;;;;5076675;28;20029;-79
2023/04/06 12:29:41;;;;;;;14.67;10.40;;;;;;;;;;5077505;28;20434;-78
2023/04/06 12:32:08;;;;;;;22.63;12.60;;;;;;;;;;5065827;28;20024;-77
2023/04/06 12:34:34;;;;;;;19.37;11.83;;;;;;;;;;5065905;28;21632;-78
2023/04/06 12:37:00;;;;;;;20.73;12.00;;;;;;;;;;5063579;28;20036;-78
2023/04/06 12:39:28;;;;;;;22.00;10.90;;;;;;;;;;5059364;28;20020;-78
2023/04/06 12:41:55;;;;;;;18.73;11.80;;;;;;;;;;5062967;28;20438;-78
2023/04/06 12:44:21;;;;;;;24.20;12.63;;;;;;;;;;5076245;28;20029;-78
2023/04/06 12:46:47;;;;;;;17.13;10.48;;;;;;;;;;5060797;28;20635;-78
2023/04/06 12:49:13;;;;;;;22.05;11.48;;;;;;;;;;5078356;28;20025;-78
2023/04/06 12:51:41;;;;;;;16.23;10.75;;;;;;;;;;5078813;28;20093;-79
2023/04/06 12:54:07;;;;;;;25.37;11.70;;;;;;;;;;5061182;28;20029;-78
2023/04/06 12:56:33;;;;;;;18.40;9.73;;;;;;;;;;5071097;28;20127;-78
2023/04/06 12:59:00;;;;;;;15.63;9.50;;;;;;;;;;5077621;28;20044;-78
2023/04/06 13:01:27;;;;;;;14.63;8.63;;;;;;;;;;5061286;28;20082;-78
2023/04/06 13:03:53;;;;;;;16.77;7.80;;;;;;;;;;5076563;28;20586;-78
2023/04/06 13:06:20;;;;;;;10.10;6.43;;;;;;;;;;5081407;28;20039;-79
2023/04/06 13:08:47;;;;;;;12.13;7.90;;;;;;;;;;5078013;28;20046;-79
2023/04/06 13:11:13;;;;;;;11.47;6.90;;;;;;;;;;5076102;28;20115;-78
2023/04/06 13:13:39;;;;;;;16.07;7.67;;;;;;;;;;5066496;28;20071;-78
2023/04/06 13:16:06;;;;;;;12.00;7.00;;;;;;;;;;5074297;28;20025;-77
2023/04/06 13:18:32;;;;;;;17.63;7.40;;;;;;;;;;5062047;28;20105;-79
2023/04/06 13:21:02;;;;;;;12.40;7.30;;;;;;;;;;5062143;28;20024;-78
2023/04/06 13:23:28;;;;;;;12.77;7.80;;;;;;;;;;5060827;28;20036;-79
2023/04/06 13:26:01;;;;;;;9.20;6.70;;;;;;;;;;5065481;28;20033;-77
2023/04/06 13:28:27;;;;;;;9.97;6.67;;;;;;;;;;5076106;28;20482;-79
2023/04/06 13:31:22;;;;;;;13.23;7.30;;;;;;;;;;5059968;28;20032;-79
2023/04/06 13:33:48;;;;;;;10.50;7.10;;;;;;;;;;5077553;28;20076;-77
2023/04/06 13:36:16;;;;;;;9.53;6.33;;;;;;;;;;5059298;28;20020;-78
2023/04/06 13:38:42;;;;;;;14.13;7.03;;;;;;;;;;5058846;28;20064;-78
2023/04/06 13:41:08;;;;;;;13.20;6.47;;;;;;;;;;5061031;28;20067;-78
2023/04/06 13:43:34;;;;;;;11.87;6.60;;;;;;;;;;5060214;28;20025;-77
2023/04/06 13:46:00;;;;;;;11.90;7.03;;;;;;;;;;5077702;28;20032;-78
2023/04/06 13:48:27;;;;;;;10.60;6.87;;;;;;;;;;5062748;28;20086;-78
2023/04/06 13:50:53;;;;;;;11.03;7.53;;;;;;;;;;5060392;28;20104;-79
2023/04/06 13:53:21;;;;;;;11.43;7.17;;;;;;;;;;5062845;28;20024;-78
2023/04/06 13:55:56;;;;;;;14.50;7.70;;;;;;;;;;5079317;28;20064;-76
2023/04/06 13:58:23;;;;;;;13.70;7.50;;;;;;;;;;5084326;28;20029;-78
2023/04/06 14:00:49;;;;;;;13.10;8.53;;;;;;;;;;5064863;28;20035;-79
2023/04/06 14:03:15;;;;;;;15.67;9.40;;;;;;;;;;5078632;28;20074;-78
2023/04/06 14:05:43;;;;;;;13.23;9.17;;;;;;;;;;5064801;28;20052;-78
2023/04/06 14:08:09;;;;;;;17.47;9.53;;;;;;;;;;5082156;28;20028;-78
2023/04/06 14:10:40;;;;;;;13.00;8.40;;;;;;;;;;5067609;28;20145;-78
2023/04/06 14:13:08;;;;;;;9.53;5.93;;;;;;;;;;5082121;28;20021;-78
2023/04/06 14:15:35;;;;;;;8.60;5.63;;;;;;;;;;5064065;28;20043;-78
2023/04/06 14:18:01;;;;;;;8.83;6.20;;;;;;;;;;5062672;28;20041;-78
2023/04/06 14:20:27;;;;;;;9.80;7.17;;;;;;;;;;5081089;28;20052;-78